KRBL/RBL METAR and TAF weather

Enter ICAO airport designator
Station Type Date Time Source
KRBL METAR 2019/04/23 03:54 UTC NOAA

KRBL 230354Z AUTO 33006KT 10SM CLR 22/09 A3003 RMK AO2 SLP166 T02220089


Station Type Date Time Source
KRBL Decoded METAR 2019/04/23 03:54 UTC NOAA

RED BLUFF MUNICIPAL AIRPORT, CA, United States (KRBL) 40-09N 122-15W 104M
Apr 22, 2019 - 11:54 PM EDT / 2019.04.23 0354 UTC
Wind: from the NNW (330 degrees) at 7 MPH (6 KT):0
Visibility: 10 mile(s):0
Sky conditions: clear
Temperature: 72.0 F (22.2 C)
Dew Point: 48.0 F (8.9 C)
Relative Humidity: 42%
Pressure (altimeter): 30.03 in. Hg (1016 hPa)
ob: KRBL 230354Z AUTO 33006KT 10SM CLR 22/09 A3003 RMK AO2 SLP166 T02220089
cycle: 4

Station Type Date Time Source
KRBL TAF 2019/04/22 18:34 UTC NOAA

TAF KRBL 221732Z 2218/2318 35015G22KT P6SM SCT250
FM230200 34010KT P6SM SCT250

Example: see airport list